sensor_id;sensor_type;location;lat;lon;timestamp;P1;durP1;ratioP1;P2;durP2;ratioP2
66739;SDS011;53653;52.188;8.602;2023-02-25T00:00:15;21.77;;;3.65;;
66739;SDS011;53653;52.188;8.602;2023-02-25T00:02:43;18.38;;;2.78;;
66739;SDS011;53653;52.188;8.602;2023-02-25T00:05:12;13.10;;;2.97;;
66739;SDS011;53653;52.188;8.602;2023-02-25T00:07:38;19.90;;;2.75;;
66739;SDS011;53653;52.188;8.602;2023-02-25T00:10:05;15.97;;;2.47;;
66739;SDS011;53653;52.188;8.602;2023-02-25T00:12:35;25.77;;;3.38;;
66739;SDS011;53653;52.188;8.602;2023-02-25T00:15:02;15.27;;;2.72;;
66739;SDS011;53653;52.188;8.602;2023-02-25T00:17:28;14.98;;;2.58;;
66739;SDS011;53653;52.188;8.602;2023-02-25T00:19:54;17.90;;;3.53;;
66739;SDS011;53653;52.188;8.602;2023-02-25T00:22:22;18.85;;;3.63;;
66739;SDS011;53653;52.188;8.602;2023-02-25T00:24:52;11.88;;;2.83;;
66739;SDS011;53653;52.188;8.602;2023-02-25T00:27:21;14.85;;;2.45;;
66739;SDS011;53653;52.188;8.602;2023-02-25T00:29:50;8.87;;;2.07;;
66739;SDS011;53653;52.188;8.602;2023-02-25T00:32:16;11.00;;;3.47;;
66739;SDS011;53653;52.188;8.602;2023-02-25T00:34:42;13.60;;;2.63;;
66739;SDS011;53653;52.188;8.602;2023-02-25T00:37:07;22.03;;;2.67;;
66739;SDS011;53653;52.188;8.602;2023-02-25T00:39:34;11.63;;;2.28;;
66739;SDS011;53653;52.188;8.602;2023-02-25T00:42:07;13.02;;;2.92;;
66739;SDS011;53653;52.188;8.602;2023-02-25T00:44:37;13.85;;;3.10;;
66739;SDS011;53653;52.188;8.602;2023-02-25T00:47:03;21.58;;;2.80;;
66739;SDS011;53653;52.188;8.602;2023-02-25T00:49:31;13.10;;;2.27;;
66739;SDS011;53653;52.188;8.602;2023-02-25T00:51:57;16.45;;;2.75;;
66739;SDS011;53653;52.188;8.602;2023-02-25T00:54:23;14.27;;;2.25;;
66739;SDS011;53653;52.188;8.602;2023-02-25T00:56:49;15.45;;;3.40;;
66739;SDS011;53653;52.188;8.602;2023-02-25T00:59:15;15.07;;;2.50;;
66739;SDS011;53653;52.188;8.602;2023-02-25T01:01:42;14.20;;;2.35;;
66739;SDS011;53653;52.188;8.602;2023-02-25T01:04:08;11.02;;;2.50;;
66739;SDS011;53653;52.188;8.602;2023-02-25T01:06:34;12.33;;;2.73;;
66739;SDS011;53653;52.188;8.602;2023-02-25T01:09:01;15.98;;;2.88;;
66739;SDS011;53653;52.188;8.602;2023-02-25T01:11:29;14.95;;;2.80;;
66739;SDS011;53653;52.188;8.602;2023-02-25T01:13:59;14.55;;;2.55;;
66739;SDS011;53653;52.188;8.602;2023-02-25T01:16:28;15.10;;;2.70;;
66739;SDS011;53653;52.188;8.602;2023-02-25T01:18:56;13.93;;;2.40;;
66739;SDS011;53653;52.188;8.602;2023-02-25T01:21:31;18.17;;;2.80;;
66739;SDS011;53653;52.188;8.602;2023-02-25T01:24:00;17.40;;;2.40;;
66739;SDS011;53653;52.188;8.602;2023-02-25T01:26:31;12.48;;;2.30;;
66739;SDS011;53653;52.188;8.602;2023-02-25T01:28:59;20.40;;;3.13;;
66739;SDS011;53653;52.188;8.602;2023-02-25T01:31:26;14.10;;;2.27;;
66739;SDS011;53653;52.188;8.602;2023-02-25T01:33:58;12.65;;;2.80;;
66739;SDS011;53653;52.188;8.602;2023-02-25T01:36:26;12.43;;;2.92;;
66739;SDS011;53653;52.188;8.602;2023-02-25T01:38:53;20.60;;;2.67;;
66739;SDS011;53653;52.188;8.602;2023-02-25T01:41:20;15.95;;;2.92;;
66739;SDS011;53653;52.188;8.602;2023-02-25T01:44:04;19.03;;;3.00;;
66739;SDS011;53653;52.188;8.602;2023-02-25T01:46:46;13.02;;;2.33;;
66739;SDS011;53653;52.188;8.602;2023-02-25T01:49:20;13.65;;;2.42;;
66739;SDS011;53653;52.188;8.602;2023-02-25T01:51:54;12.70;;;3.05;;
66739;SDS011;53653;52.188;8.602;2023-02-25T01:54:23;15.63;;;3.10;;
66739;SDS011;53653;52.188;8.602;2023-02-25T01:56:52;16.17;;;2.80;;
66739;SDS011;53653;52.188;8.602;2023-02-25T01:59:21;13.65;;;2.50;;
66739;SDS011;53653;52.188;8.602;2023-02-25T02:01:50;14.50;;;2.65;;
66739;SDS011;53653;52.188;8.602;2023-02-25T02:04:16;11.97;;;3.47;;
66739;SDS011;53653;52.188;8.602;2023-02-25T02:06:44;15.05;;;3.13;;
66739;SDS011;53653;52.188;8.602;2023-02-25T02:09:26;17.50;;;2.22;;
66739;SDS011;53653;52.188;8.602;2023-02-25T02:12:00;17.95;;;2.47;;
66739;SDS011;53653;52.188;8.602;2023-02-25T02:14:39;18.40;;;3.13;;
66739;SDS011;53653;52.188;8.602;2023-02-25T02:39:54;12.77;;;2.65;;
66739;SDS011;53653;52.188;8.602;2023-02-25T02:48:09;10.45;;;2.55;;
66739;SDS011;53653;52.188;8.602;2023-02-25T02:50:59;10.70;;;2.83;;
66739;SDS011;53653;52.188;8.602;2023-02-25T02:53:31;20.40;;;2.90;;
66739;SDS011;53653;52.188;8.602;2023-02-25T02:56:04;18.03;;;3.67;;
66739;SDS011;53653;52.188;8.602;2023-02-25T02:58:43;16.42;;;2.95;;
66739;SDS011;53653;52.188;8.602;2023-02-25T03:03:45;15.00;;;2.72;;
66739;SDS011;53653;52.188;8.602;2023-02-25T03:06:16;11.10;;;2.85;;
66739;SDS011;53653;52.188;8.602;2023-02-25T03:08:48;10.83;;;2.97;;
66739;SDS011;53653;52.188;8.602;2023-02-25T03:11:20;13.68;;;2.90;;
66739;SDS011;53653;52.188;8.602;2023-02-25T03:13:47;14.38;;;3.17;;
66739;SDS011;53653;52.188;8.602;2023-02-25T03:16:19;10.60;;;2.03;;
66739;SDS011;53653;52.188;8.602;2023-02-25T03:18:54;17.33;;;2.78;;
66739;SDS011;53653;52.188;8.602;2023-02-25T03:21:40;9.67;;;2.30;;
66739;SDS011;53653;52.188;8.602;2023-02-25T03:24:09;12.75;;;2.40;;
66739;SDS011;53653;52.188;8.602;2023-02-25T03:26:41;12.52;;;2.90;;
66739;SDS011;53653;52.188;8.602;2023-02-25T03:29:15;12.55;;;2.75;;
66739;SDS011;53653;52.188;8.602;2023-02-25T03:32:16;12.80;;;2.38;;
66739;SDS011;53653;52.188;8.602;2023-02-25T03:34:38;15.73;;;2.67;;
66739;SDS011;53653;52.188;8.602;2023-02-25T03:37:12;11.82;;;2.75;;
66739;SDS011;53653;52.188;8.602;2023-02-25T03:39:43;17.05;;;2.50;;
66739;SDS011;53653;52.188;8.602;2023-02-25T03:42:15;13.70;;;2.40;;
66739;SDS011;53653;52.188;8.602;2023-02-25T03:44:53;9.35;;;2.80;;
66739;SDS011;53653;52.188;8.602;2023-02-25T03:47:21;11.63;;;2.30;;
66739;SDS011;53653;52.188;8.602;2023-02-25T03:49:59;11.20;;;2.22;;
66739;SDS011;53653;52.188;8.602;2023-02-25T03:52:50;13.20;;;2.25;;
66739;SDS011;53653;52.188;8.602;2023-02-25T03:55:45;12.23;;;2.90;;
66739;SDS011;53653;52.188;8.602;2023-02-25T03:58:11;10.32;;;2.60;;
66739;SDS011;53653;52.188;8.602;2023-02-25T04:00:37;10.97;;;2.53;;
66739;SDS011;53653;52.188;8.602;2023-02-25T04:03:05;8.75;;;2.40;;
66739;SDS011;53653;52.188;8.602;2023-02-25T04:05:30;11.63;;;2.55;;
66739;SDS011;53653;52.188;8.602;2023-02-25T04:07:57;13.13;;;2.57;;
66739;SDS011;53653;52.188;8.602;2023-02-25T04:10:26;16.23;;;3.53;;
66739;SDS011;53653;52.188;8.602;2023-02-25T04:12:52;14.98;;;2.67;;
66739;SDS011;53653;52.188;8.602;2023-02-25T04:15:18;9.98;;;2.83;;
66739;SDS011;53653;52.188;8.602;2023-02-25T04:17:45;10.33;;;2.33;;
66739;SDS011;53653;52.188;8.602;2023-02-25T04:20:12;16.67;;;2.50;;
66739;SDS011;53653;52.188;8.602;2023-02-25T04:22:39;13.05;;;2.47;;
66739;SDS011;53653;52.188;8.602;2023-02-25T04:25:04;12.23;;;2.35;;
66739;SDS011;53653;52.188;8.602;2023-02-25T04:27:30;11.00;;;2.60;;
66739;SDS011;53653;52.188;8.602;2023-02-25T04:29:56;11.65;;;2.85;;
66739;SDS011;53653;52.188;8.602;2023-02-25T04:32:22;10.57;;;2.25;;
66739;SDS011;53653;52.188;8.602;2023-02-25T04:34:48;14.63;;;3.23;;
66739;SDS011;53653;52.188;8.602;2023-02-25T04:37:14;11.48;;;2.40;;
66739;SDS011;53653;52.188;8.602;2023-02-25T04:39:39;9.03;;;2.47;;
66739;SDS011;53653;52.188;8.602;2023-02-25T04:42:05;7.53;;;2.38;;
66739;SDS011;53653;52.188;8.602;2023-02-25T04:44:31;8.47;;;2.20;;
66739;SDS011;53653;52.188;8.602;2023-02-25T04:46:57;12.23;;;2.20;;
66739;SDS011;53653;52.188;8.602;2023-02-25T04:49:22;10.37;;;2.17;;
66739;SDS011;53653;52.188;8.602;2023-02-25T04:51:48;10.82;;;2.00;;
66739;SDS011;53653;52.188;8.602;2023-02-25T04:54:16;10.68;;;2.10;;
66739;SDS011;53653;52.188;8.602;2023-02-25T04:56:45;10.77;;;2.50;;
66739;SDS011;53653;52.188;8.602;2023-02-25T04:59:11;9.57;;;2.40;;
66739;SDS011;53653;52.188;8.602;2023-02-25T05:01:37;8.95;;;2.10;;
66739;SDS011;53653;52.188;8.602;2023-02-25T05:04:03;10.98;;;2.13;;
66739;SDS011;53653;52.188;8.602;2023-02-25T05:06:29;10.73;;;2.20;;
66739;SDS011;53653;52.188;8.602;2023-02-25T05:08:55;10.53;;;2.00;;
66739;SDS011;53653;52.188;8.602;2023-02-25T05:11:22;8.60;;;1.85;;
66739;SDS011;53653;52.188;8.602;2023-02-25T05:13:48;10.95;;;1.63;;
66739;SDS011;53653;52.188;8.602;2023-02-25T05:16:15;5.60;;;1.80;;
66739;SDS011;53653;52.188;8.602;2023-02-25T05:18:43;8.27;;;1.90;;
66739;SDS011;53653;52.188;8.602;2023-02-25T05:21:11;6.00;;;1.60;;
66739;SDS011;53653;52.188;8.602;2023-02-25T05:23:42;9.40;;;1.90;;
66739;SDS011;53653;52.188;8.602;2023-02-25T05:26:09;6.50;;;1.73;;
66739;SDS011;53653;52.188;8.602;2023-02-25T05:28:36;7.50;;;1.70;;
66739;SDS011;53653;52.188;8.602;2023-02-25T05:31:03;5.90;;;1.90;;
66739;SDS011;53653;52.188;8.602;2023-02-25T05:33:33;6.35;;;1.90;;
66739;SDS011;53653;52.188;8.602;2023-02-25T05:36:00;9.30;;;1.80;;
66739;SDS011;53653;52.188;8.602;2023-02-25T05:38:26;9.70;;;1.95;;
66739;SDS011;53653;52.188;8.602;2023-02-25T05:40:52;9.80;;;2.00;;
66739;SDS011;53653;52.188;8.602;2023-02-25T05:43:19;5.82;;;1.40;;
66739;SDS011;53653;52.188;8.602;2023-02-25T05:45:54;6.70;;;1.80;;
66739;SDS011;53653;52.188;8.602;2023-02-25T05:48:21;10.17;;;2.23;;
66739;SDS011;53653;52.188;8.602;2023-02-25T05:50:47;7.65;;;1.70;;
66739;SDS011;53653;52.188;8.602;2023-02-25T05:53:17;9.13;;;1.65;;
66739;SDS011;53653;52.188;8.602;2023-02-25T05:55:44;7.75;;;1.83;;
66739;SDS011;53653;52.188;8.602;2023-02-25T05:58:10;8.75;;;2.00;;
66739;SDS011;53653;52.188;8.602;2023-02-25T06:00:37;8.17;;;1.73;;
66739;SDS011;53653;52.188;8.602;2023-02-25T06:03:03;5.95;;;1.80;;
66739;SDS011;53653;52.188;8.602;2023-02-25T06:05:29;8.65;;;2.03;;
66739;SDS011;53653;52.188;8.602;2023-02-25T06:07:58;7.32;;;2.10;;
66739;SDS011;53653;52.188;8.602;2023-02-25T06:10:25;7.07;;;1.60;;
66739;SDS011;53653;52.188;8.602;2023-02-25T06:12:51;7.05;;;1.58;;
66739;SDS011;53653;52.188;8.602;2023-02-25T06:15:17;6.60;;;1.98;;
66739;SDS011;53653;52.188;8.602;2023-02-25T06:17:42;11.57;;;2.10;;
66739;SDS011;53653;52.188;8.602;2023-02-25T06:20:08;6.87;;;1.73;;
66739;SDS011;53653;52.188;8.602;2023-02-25T06:22:34;8.90;;;2.38;;
66739;SDS011;53653;52.188;8.602;2023-02-25T06:24:59;6.87;;;1.80;;
66739;SDS011;53653;52.188;8.602;2023-02-25T06:27:25;8.15;;;1.67;;
66739;SDS011;53653;52.188;8.602;2023-02-25T06:29:51;9.90;;;2.10;;
66739;SDS011;53653;52.188;8.602;2023-02-25T06:32:16;7.75;;;2.15;;
66739;SDS011;53653;52.188;8.602;2023-02-25T06:34:43;9.53;;;2.63;;
66739;SDS011;53653;52.188;8.602;2023-02-25T06:37:09;7.32;;;2.03;;
66739;SDS011;53653;52.188;8.602;2023-02-25T06:39:34;7.83;;;1.70;;
66739;SDS011;53653;52.188;8.602;2023-02-25T06:42:00;9.60;;;2.17;;
66739;SDS011;53653;52.188;8.602;2023-02-25T06:44:26;14.07;;;2.17;;
66739;SDS011;53653;52.188;8.602;2023-02-25T06:46:53;7.35;;;2.20;;
66739;SDS011;53653;52.188;8.602;2023-02-25T06:49:20;8.10;;;2.20;;
66739;SDS011;53653;52.188;8.602;2023-02-25T06:51:46;8.05;;;2.40;;
66739;SDS011;53653;52.188;8.602;2023-02-25T06:54:15;11.27;;;2.40;;
66739;SDS011;53653;52.188;8.602;2023-02-25T06:56:42;10.25;;;2.10;;
66739;SDS011;53653;52.188;8.602;2023-02-25T06:59:07;8.52;;;2.13;;
66739;SDS011;53653;52.188;8.602;2023-02-25T07:01:33;7.97;;;2.30;;
66739;SDS011;53653;52.188;8.602;2023-02-25T07:03:58;8.93;;;2.10;;
66739;SDS011;53653;52.188;8.602;2023-02-25T07:06:24;6.40;;;1.83;;
66739;SDS011;53653;52.188;8.602;2023-02-25T07:08:50;7.72;;;2.17;;
66739;SDS011;53653;52.188;8.602;2023-02-25T07:13:42;9.27;;;1.90;;
66739;SDS011;53653;52.188;8.602;2023-02-25T07:16:08;9.67;;;2.20;;
66739;SDS011;53653;52.188;8.602;2023-02-25T07:18:35;10.48;;;2.20;;
66739;SDS011;53653;52.188;8.602;2023-02-25T07:21:00;6.27;;;2.10;;
66739;SDS011;53653;52.188;8.602;2023-02-25T07:23:26;7.95;;;1.85;;
66739;SDS011;53653;52.188;8.602;2023-02-25T07:25:51;7.43;;;1.60;;
66739;SDS011;53653;52.188;8.602;2023-02-25T07:28:17;7.03;;;1.83;;
66739;SDS011;53653;52.188;8.602;2023-02-25T07:30:42;7.20;;;2.00;;
66739;SDS011;53653;52.188;8.602;2023-02-25T07:33:08;7.50;;;1.97;;
66739;SDS011;53653;52.188;8.602;2023-02-25T07:35:35;8.93;;;1.98;;
66739;SDS011;53653;52.188;8.602;2023-02-25T07:38:00;6.93;;;2.67;;
66739;SDS011;53653;52.188;8.602;2023-02-25T07:40:26;11.43;;;2.27;;
66739;SDS011;53653;52.188;8.602;2023-02-25T07:42:51;7.60;;;1.67;;
66739;SDS011;53653;52.188;8.602;2023-02-25T07:45:19;6.68;;;1.48;;
66739;SDS011;53653;52.188;8.602;2023-02-25T07:47:45;7.87;;;1.20;;
66739;SDS011;53653;52.188;8.602;2023-02-25T07:50:10;9.20;;;1.50;;
66739;SDS011;53653;52.188;8.602;2023-02-25T07:52:39;6.25;;;1.50;;
66739;SDS011;53653;52.188;8.602;2023-02-25T07:55:05;5.50;;;1.30;;
66739;SDS011;53653;52.188;8.602;2023-02-25T07:57:31;6.65;;;1.45;;
66739;SDS011;53653;52.188;8.602;2023-02-25T07:59:57;7.53;;;1.60;;
66739;SDS011;53653;52.188;8.602;2023-02-25T08:02:22;7.87;;;1.70;;
66739;SDS011;53653;52.188;8.602;2023-02-25T08:04:49;6.80;;;1.45;;
66739;SDS011;53653;52.188;8.602;2023-02-25T08:07:14;6.32;;;1.55;;
66739;SDS011;53653;52.188;8.602;2023-02-25T08:09:40;6.17;;;1.87;;
66739;SDS011;53653;52.188;8.602;2023-02-25T08:12:06;8.57;;;1.70;;
66739;SDS011;53653;52.188;8.602;2023-02-25T08:14:33;7.97;;;1.75;;
66739;SDS011;53653;52.188;8.602;2023-02-25T08:16:58;7.63;;;1.93;;
66739;SDS011;53653;52.188;8.602;2023-02-25T08:19:26;9.77;;;1.77;;
66739;SDS011;53653;52.188;8.602;2023-02-25T08:21:51;8.80;;;1.83;;
66739;SDS011;53653;52.188;8.602;2023-02-25T08:24:19;7.97;;;2.13;;
66739;SDS011;53653;52.188;8.602;2023-02-25T08:26:48;8.57;;;1.73;;
66739;SDS011;53653;52.188;8.602;2023-02-25T08:29:13;5.97;;;1.45;;
66739;SDS011;53653;52.188;8.602;2023-02-25T08:31:40;8.45;;;1.42;;
66739;SDS011;53653;52.188;8.602;2023-02-25T08:34:05;6.77;;;1.70;;
66739;SDS011;53653;52.188;8.602;2023-02-25T08:36:31;5.83;;;1.60;;
66739;SDS011;53653;52.188;8.602;2023-02-25T08:38:57;6.63;;;1.60;;
66739;SDS011;53653;52.188;8.602;2023-02-25T08:41:24;6.57;;;1.77;;
66739;SDS011;53653;52.188;8.602;2023-02-25T08:43:51;6.40;;;1.33;;
66739;SDS011;53653;52.188;8.602;2023-02-25T08:46:24;6.57;;;1.40;;
66739;SDS011;53653;52.188;8.602;2023-02-25T08:48:52;4.83;;;1.47;;
66739;SDS011;53653;52.188;8.602;2023-02-25T08:51:19;5.82;;;1.73;;
66739;SDS011;53653;52.188;8.602;2023-02-25T08:53:47;4.18;;;1.20;;
66739;SDS011;53653;52.188;8.602;2023-02-25T08:56:13;7.73;;;2.20;;
66739;SDS011;53653;52.188;8.602;2023-02-25T08:58:40;7.43;;;1.40;;
66739;SDS011;53653;52.188;8.602;2023-02-25T09:01:08;8.23;;;1.60;;
66739;SDS011;53653;52.188;8.602;2023-02-25T09:03:37;7.15;;;1.60;;
66739;SDS011;53653;52.188;8.602;2023-02-25T09:06:26;9.35;;;1.85;;
66739;SDS011;53653;52.188;8.602;2023-02-25T09:08:55;11.63;;;1.83;;
66739;SDS011;53653;52.188;8.602;2023-02-25T09:11:21;5.72;;;1.35;;
66739;SDS011;53653;52.188;8.602;2023-02-25T09:13:48;8.88;;;1.80;;
66739;SDS011;53653;52.188;8.602;2023-02-25T09:16:13;10.03;;;2.00;;
66739;SDS011;53653;52.188;8.602;2023-02-25T09:18:44;6.00;;;1.50;;
66739;SDS011;53653;52.188;8.602;2023-02-25T09:21:10;10.18;;;1.75;;
66739;SDS011;53653;52.188;8.602;2023-02-25T09:23:37;5.93;;;1.58;;
66739;SDS011;53653;52.188;8.602;2023-02-25T09:26:03;8.00;;;1.40;;
66739;SDS011;53653;52.188;8.602;2023-02-25T09:28:29;5.10;;;1.40;;
66739;SDS011;53653;52.188;8.602;2023-02-25T09:30:55;4.03;;;0.90;;
66739;SDS011;53653;52.188;8.602;2023-02-25T09:33:22;9.80;;;1.58;;
66739;SDS011;53653;52.188;8.602;2023-02-25T09:35:48;10.27;;;1.30;;
66739;SDS011;53653;52.188;8.602;2023-02-25T09:38:14;8.23;;;1.50;;
66739;SDS011;53653;52.188;8.602;2023-02-25T09:40:40;7.70;;;1.70;;
66739;SDS011;53653;52.188;8.602;2023-02-25T09:43:20;9.80;;;1.30;;
66739;SDS011;53653;52.188;8.602;2023-02-25T09:45:53;7.50;;;1.47;;
66739;SDS011;53653;52.188;8.602;2023-02-25T09:48:33;8.05;;;1.33;;
66739;SDS011;53653;52.188;8.602;2023-02-25T09:51:15;5.00;;;1.20;;
66739;SDS011;53653;52.188;8.602;2023-02-25T09:53:46;9.43;;;2.15;;
66739;SDS011;53653;52.188;8.602;2023-02-25T09:56:17;5.53;;;1.27;;
66739;SDS011;53653;52.188;8.602;2023-02-25T09:59:02;7.00;;;1.73;;
66739;SDS011;53653;52.188;8.602;2023-02-25T10:01:33;7.53;;;1.63;;
66739;SDS011;53653;52.188;8.602;2023-02-25T10:04:16;6.10;;;1.30;;
66739;SDS011;53653;52.188;8.602;2023-02-25T10:06:49;12.30;;;1.77;;
66739;SDS011;53653;52.188;8.602;2023-02-25T10:26:03;5.73;;;1.40;;
66739;SDS011;53653;52.188;8.602;2023-02-25T10:28:37;7.78;;;1.58;;
66739;SDS011;53653;52.188;8.602;2023-02-25T10:31:06;9.48;;;1.38;;
66739;SDS011;53653;52.188;8.602;2023-02-25T10:33:38;5.43;;;1.25;;
66739;SDS011;53653;52.188;8.602;2023-02-25T10:39:05;6.27;;;1.40;;
66739;SDS011;53653;52.188;8.602;2023-02-25T10:41:33;4.32;;;1.27;;
66739;SDS011;53653;52.188;8.602;2023-02-25T10:43:59;5.90;;;1.65;;
66739;SDS011;53653;52.188;8.602;2023-02-25T10:46:28;4.27;;;1.03;;
66739;SDS011;53653;52.188;8.602;2023-02-25T10:49:00;5.15;;;1.10;;
66739;SDS011;53653;52.188;8.602;2023-02-25T10:51:37;7.65;;;1.27;;
66739;SDS011;53653;52.188;8.602;2023-02-25T10:54:04;5.33;;;1.20;;
66739;SDS011;53653;52.188;8.602;2023-02-25T10:56:33;5.95;;;1.23;;
66739;SDS011;53653;52.188;8.602;2023-02-25T10:59:09;5.38;;;1.33;;
66739;SDS011;53653;52.188;8.602;2023-02-25T11:01:50;6.75;;;0.98;;
66739;SDS011;53653;52.188;8.602;2023-02-25T11:04:18;7.93;;;1.00;;
66739;SDS011;53653;52.188;8.602;2023-02-25T11:06:47;4.90;;;1.20;;
66739;SDS011;53653;52.188;8.602;2023-02-25T11:14:40;6.00;;;1.30;;
66739;SDS011;53653;52.188;8.602;2023-02-25T11:19:37;4.20;;;1.10;;
66739;SDS011;53653;52.188;8.602;2023-02-25T11:22:18;3.70;;;1.17;;
66739;SDS011;53653;52.188;8.602;2023-02-25T11:24:53;3.58;;;1.45;;
66739;SDS011;53653;52.188;8.602;2023-02-25T11:27:37;5.03;;;1.33;;
66739;SDS011;53653;52.188;8.602;2023-02-25T11:30:23;4.07;;;1.02;;
66739;SDS011;53653;52.188;8.602;2023-02-25T11:32:55;5.53;;;1.20;;
66739;SDS011;53653;52.188;8.602;2023-02-25T11:35:24;6.30;;;1.20;;
66739;SDS011;53653;52.188;8.602;2023-02-25T11:37:54;2.55;;;0.80;;
66739;SDS011;53653;52.188;8.602;2023-02-25T11:40:43;4.38;;;1.30;;
66739;SDS011;53653;52.188;8.602;2023-02-25T11:46:16;2.80;;;0.93;;
66739;SDS011;53653;52.188;8.602;2023-02-25T11:53:52;6.03;;;1.20;;
66739;SDS011;53653;52.188;8.602;2023-02-25T11:56:27;4.28;;;1.00;;
66739;SDS011;53653;52.188;8.602;2023-02-25T12:01:44;5.90;;;0.90;;
66739;SDS011;53653;52.188;8.602;2023-02-25T12:18:43;3.25;;;1.00;;
66739;SDS011;53653;52.188;8.602;2023-02-25T12:41:24;6.17;;;1.77;;
66739;SDS011;53653;52.188;8.602;2023-02-25T13:09:17;4.07;;;1.37;;
66739;SDS011;53653;52.188;8.602;2023-02-25T13:14:43;7.00;;;1.60;;
66739;SDS011;53653;52.188;8.602;2023-02-25T13:17:26;4.95;;;1.10;;
66739;SDS011;53653;52.188;8.602;2023-02-25T13:23:13;5.57;;;1.60;;
66739;SDS011;53653;52.188;8.602;2023-02-25T13:26:13;4.63;;;1.50;;
66739;SDS011;53653;52.188;8.602;2023-02-25T13:29:22;6.78;;;1.98;;
66739;SDS011;53653;52.188;8.602;2023-02-25T13:34:37;3.40;;;1.20;;
66739;SDS011;53653;52.188;8.602;2023-02-25T13:45:55;7.55;;;1.55;;
66739;SDS011;53653;52.188;8.602;2023-02-25T13:51:24;4.90;;;1.50;;
66739;SDS011;53653;52.188;8.602;2023-02-25T13:54:15;4.47;;;1.50;;
66739;SDS011;53653;52.188;8.602;2023-02-25T13:57:01;5.57;;;1.55;;
66739;SDS011;53653;52.188;8.602;2023-02-25T14:05:33;4.67;;;1.70;;
66739;SDS011;53653;52.188;8.602;2023-02-25T14:08:10;3.83;;;1.33;;
66739;SDS011;53653;52.188;8.602;2023-02-25T14:10:59;7.28;;;1.70;;
66739;SDS011;53653;52.188;8.602;2023-02-25T14:22:37;5.22;;;1.40;;
66739;SDS011;53653;52.188;8.602;2023-02-25T14:31:01;3.03;;;1.08;;
66739;SDS011;53653;52.188;8.602;2023-02-25T15:01:36;6.53;;;1.40;;
66739;SDS011;53653;52.188;8.602;2023-02-25T15:07:36;5.18;;;1.50;;
66739;SDS011;53653;52.188;8.602;2023-02-25T15:12:55;4.97;;;1.40;;
66739;SDS011;53653;52.188;8.602;2023-02-25T15:15:34;5.13;;;1.60;;
66739;SDS011;53653;52.188;8.602;2023-02-25T15:33:23;4.18;;;1.30;;
66739;SDS011;53653;52.188;8.602;2023-02-25T15:35:59;4.00;;;1.27;;
66739;SDS011;53653;52.188;8.602;2023-02-25T15:43:56;3.67;;;1.30;;
66739;SDS011;53653;52.188;8.602;2023-02-25T15:46:29;3.60;;;1.08;;
66739;SDS011;53653;52.188;8.602;2023-02-25T15:49:04;4.07;;;1.43;;
66739;SDS011;53653;52.188;8.602;2023-02-25T15:51:41;4.55;;;1.48;;
66739;SDS011;53653;52.188;8.602;2023-02-25T15:56:57;7.20;;;1.58;;
66739;SDS011;53653;52.188;8.602;2023-02-25T16:07:34;6.38;;;1.90;;
66739;SDS011;53653;52.188;8.602;2023-02-25T16:13:10;6.43;;;1.80;;
66739;SDS011;53653;52.188;8.602;2023-02-25T16:15:42;4.83;;;1.20;;
66739;SDS011;53653;52.188;8.602;2023-02-25T16:20:50;6.45;;;1.85;;
66739;SDS011;53653;52.188;8.602;2023-02-25T16:23:18;6.63;;;1.77;;
66739;SDS011;53653;52.188;8.602;2023-02-25T16:25:57;7.22;;;2.72;;
66739;SDS011;53653;52.188;8.602;2023-02-25T16:31:36;7.65;;;2.15;;
66739;SDS011;53653;52.188;8.602;2023-02-25T16:39:40;10.77;;;3.17;;
66739;SDS011;53653;52.188;8.602;2023-02-25T16:42:12;8.17;;;2.63;;
66739;SDS011;53653;52.188;8.602;2023-02-25T16:44:40;4.80;;;1.40;;
66739;SDS011;53653;52.188;8.602;2023-02-25T16:49:55;11.10;;;3.50;;
66739;SDS011;53653;52.188;8.602;2023-02-25T16:52:34;6.87;;;2.50;;
66739;SDS011;53653;52.188;8.602;2023-02-25T16:55:05;5.80;;;2.30;;
66739;SDS011;53653;52.188;8.602;2023-02-25T16:57:34;7.10;;;1.50;;
66739;SDS011;53653;52.188;8.602;2023-02-25T17:00:10;6.55;;;2.15;;
66739;SDS011;53653;52.188;8.602;2023-02-25T17:02:43;7.65;;;2.20;;
66739;SDS011;53653;52.188;8.602;2023-02-25T17:07:47;7.00;;;2.10;;
66739;SDS011;53653;52.188;8.602;2023-02-25T17:10:22;8.60;;;2.97;;
66739;SDS011;53653;52.188;8.602;2023-02-25T17:13:02;7.57;;;2.13;;
66739;SDS011;53653;52.188;8.602;2023-02-25T17:15:29;17.30;;;5.40;;
66739;SDS011;53653;52.188;8.602;2023-02-25T17:18:00;15.63;;;5.00;;
66739;SDS011;53653;52.188;8.602;2023-02-25T17:20:30;24.60;;;6.18;;
66739;SDS011;53653;52.188;8.602;2023-02-25T17:22:56;10.52;;;3.20;;
66739;SDS011;53653;52.188;8.602;2023-02-25T17:25:28;10.90;;;2.63;;
66739;SDS011;53653;52.188;8.602;2023-02-25T17:28:02;17.38;;;5.13;;
66739;SDS011;53653;52.188;8.602;2023-02-25T17:33:01;11.02;;;3.50;;
66739;SDS011;53653;52.188;8.602;2023-02-25T17:35:28;9.80;;;3.25;;
66739;SDS011;53653;52.188;8.602;2023-02-25T17:37:55;8.57;;;2.92;;
66739;SDS011;53653;52.188;8.602;2023-02-25T17:40:26;8.20;;;2.22;;
66739;SDS011;53653;52.188;8.602;2023-02-25T17:43:13;9.97;;;4.03;;
66739;SDS011;53653;52.188;8.602;2023-02-25T17:45:47;42.28;;;14.57;;
66739;SDS011;53653;52.188;8.602;2023-02-25T17:48:48;15.75;;;6.50;;
66739;SDS011;53653;52.188;8.602;2023-02-25T17:51:17;14.27;;;5.10;;
66739;SDS011;53653;52.188;8.602;2023-02-25T17:53:58;17.95;;;5.00;;
66739;SDS011;53653;52.188;8.602;2023-02-25T17:56:29;13.60;;;4.23;;
66739;SDS011;53653;52.188;8.602;2023-02-25T17:59:06;10.60;;;4.05;;
66739;SDS011;53653;52.188;8.602;2023-02-25T18:01:51;12.98;;;4.07;;
66739;SDS011;53653;52.188;8.602;2023-02-25T18:04:25;12.73;;;3.60;;
66739;SDS011;53653;52.188;8.602;2023-02-25T18:09:46;11.80;;;3.97;;
66739;SDS011;53653;52.188;8.602;2023-02-25T18:12:23;13.52;;;3.42;;
66739;SDS011;53653;52.188;8.602;2023-02-25T18:15:00;9.00;;;3.75;;
66739;SDS011;53653;52.188;8.602;2023-02-25T18:17:39;11.40;;;4.32;;
66739;SDS011;53653;52.188;8.602;2023-02-25T18:20:07;10.63;;;3.58;;
66739;SDS011;53653;52.188;8.602;2023-02-25T18:22:55;13.23;;;4.37;;
66739;SDS011;53653;52.188;8.602;2023-02-25T18:28:05;9.68;;;3.25;;
66739;SDS011;53653;52.188;8.602;2023-02-25T18:30:35;11.05;;;3.13;;
66739;SDS011;53653;52.188;8.602;2023-02-25T18:33:01;13.97;;;4.40;;
66739;SDS011;53653;52.188;8.602;2023-02-25T18:35:27;18.17;;;4.47;;
66739;SDS011;53653;52.188;8.602;2023-02-25T18:37:54;11.98;;;3.65;;
66739;SDS011;53653;52.188;8.602;2023-02-25T18:40:32;9.60;;;2.65;;
66739;SDS011;53653;52.188;8.602;2023-02-25T18:43:00;12.40;;;4.68;;
66739;SDS011;53653;52.188;8.602;2023-02-25T18:45:27;9.13;;;2.95;;
66739;SDS011;53653;52.188;8.602;2023-02-25T18:47:56;9.23;;;2.47;;
66739;SDS011;53653;52.188;8.602;2023-02-25T18:50:29;7.13;;;2.50;;
66739;SDS011;53653;52.188;8.602;2023-02-25T18:52:57;9.43;;;2.53;;
66739;SDS011;53653;52.188;8.602;2023-02-25T18:55:24;9.27;;;2.58;;
66739;SDS011;53653;52.188;8.602;2023-02-25T18:57:51;9.88;;;2.30;;
66739;SDS011;53653;52.188;8.602;2023-02-25T19:00:18;9.80;;;2.00;;
66739;SDS011;53653;52.188;8.602;2023-02-25T19:05:20;7.03;;;1.80;;
66739;SDS011;53653;52.188;8.602;2023-02-25T19:07:47;6.55;;;2.20;;
66739;SDS011;53653;52.188;8.602;2023-02-25T19:10:21;8.90;;;2.28;;
66739;SDS011;53653;52.188;8.602;2023-02-25T19:12:50;7.73;;;1.97;;
66739;SDS011;53653;52.188;8.602;2023-02-25T19:15:18;6.95;;;1.95;;
66739;SDS011;53653;52.188;8.602;2023-02-25T19:17:45;7.15;;;2.00;;
66739;SDS011;53653;52.188;8.602;2023-02-25T19:20:13;7.57;;;2.65;;
66739;SDS011;53653;52.188;8.602;2023-02-25T19:22:41;8.05;;;2.30;;
66739;SDS011;53653;52.188;8.602;2023-02-25T19:27:54;8.57;;;2.13;;
66739;SDS011;53653;52.188;8.602;2023-02-25T19:30:24;9.18;;;2.60;;
66739;SDS011;53653;52.188;8.602;2023-02-25T19:32:54;9.40;;;2.05;;